Time;durP1;ratioP1;P1;durP2;ratioP2;P2;SDS_P1;SDS_P2;PMS_P1;PMS_P2;Temp;Humidity;BMP_temperature;BMP_pressure;BME280_temperature;BME280_humidity;BME280_pressure;Samples;Min_cycle;Max_cycle;Signal;HPM_P1;HPM_P2
2020/12/31 00:01:28;;;;;;;180.25;41.53;;;;;;;;;;8128108;28;20482;-75
2020/12/31 00:05:32;;;;;;;156.52;43.70;;;;;;;;;;8126680;28;20047;-75
2020/12/31 00:09:35;;;;;;;197.15;41.55;;;;;;;;;;8128231;28;20477;-75
2020/12/31 00:13:39;;;;;;;182.43;44.35;;;;;;;;;;8127094;28;20477;-75
2020/12/31 00:17:42;;;;;;;189.27;40.65;;;;;;;;;;8126466;28;20409;-74
2020/12/31 00:21:46;;;;;;;175.98;39.88;;;;;;;;;;8127981;28;20058;-75
2020/12/31 00:25:52;;;;;;;175.57;41.78;;;;;;;;;;8127612;28;20058;-75
2020/12/31 00:29:55;;;;;;;186.35;40.03;;;;;;;;;;8126050;28;20072;-75
2020/12/31 00:33:59;;;;;;;229.85;41.80;;;;;;;;;;8127823;28;20433;-75
2020/12/31 00:38:02;;;;;;;210.95;41.95;;;;;;;;;;8127931;28;20481;-75
2020/12/31 00:42:06;;;;;;;302.40;56.33;;;;;;;;;;8127576;28;20381;-75
2020/12/31 00:46:11;;;;;;;354.63;52.08;;;;;;;;;;8127889;28;20051;-75
2020/12/31 00:50:14;;;;;;;402.08;61.58;;;;;;;;;;8128059;28;20074;-75
2020/12/31 00:54:17;;;;;;;456.60;61.05;;;;;;;;;;8126207;28;20051;-75
2020/12/31 00:58:21;;;;;;;397.50;49.60;;;;;;;;;;8125790;28;20065;-75
2020/12/31 01:02:24;;;;;;;435.13;55.50;;;;;;;;;;8127629;28;20384;-75
2020/12/31 01:06:36;;;;;;;434.40;62.15;;;;;;;;;;8109656;28;20355;-75
2020/12/31 01:10:39;;;;;;;374.15;53.03;;;;;;;;;;8128790;28;20509;-75
2020/12/31 01:14:43;;;;;;;452.73;51.30;;;;;;;;;;8132629;28;20386;-75
2020/12/31 01:18:46;;;;;;;399.10;52.35;;;;;;;;;;8131414;28;20363;-75
2020/12/31 01:22:49;;;;;;;353.40;55.38;;;;;;;;;;8131376;28;20065;-75
2020/12/31 01:26:52;;;;;;;369.15;51.45;;;;;;;;;;8132259;28;20493;-75
2020/12/31 01:30:55;;;;;;;393.55;51.88;;;;;;;;;;8132354;28;20077;-75
2020/12/31 01:34:58;;;;;;;302.60;49.65;;;;;;;;;;8132592;28;20485;-75
2020/12/31 01:39:01;;;;;;;257.17;43.95;;;;;;;;;;8132492;28;20474;-75
2020/12/31 01:43:04;;;;;;;301.60;47.42;;;;;;;;;;8132489;28;20073;-75
2020/12/31 01:47:10;;;;;;;366.75;53.53;;;;;;;;;;8132383;28;20409;-75
2020/12/31 01:51:13;;;;;;;269.50;45.03;;;;;;;;;;8132043;28;20055;-75
2020/12/31 01:55:16;;;;;;;318.08;45.58;;;;;;;;;;8129880;28;20080;-74
2020/12/31 01:59:19;;;;;;;320.80;44.80;;;;;;;;;;8147416;28;20484;-75
2020/12/31 02:03:22;;;;;;;325.63;48.25;;;;;;;;;;8131727;28;20389;-75
2020/12/31 02:07:26;;;;;;;303.88;43.03;;;;;;;;;;8130957;28;20485;-75
2020/12/31 02:11:29;;;;;;;329.40;46.35;;;;;;;;;;8130830;28;20520;-75
2020/12/31 02:15:32;;;;;;;278.08;44.63;;;;;;;;;;8130668;28;20063;-75
2020/12/31 02:19:35;;;;;;;346.77;50.22;;;;;;;;;;8131137;28;20466;-75
2020/12/31 02:23:38;;;;;;;343.40;47.47;;;;;;;;;;8127881;28;20386;-75
2020/12/31 02:27:42;;;;;;;355.38;49.53;;;;;;;;;;8130740;28;20393;-75
2020/12/31 02:31:47;;;;;;;328.58;52.92;;;;;;;;;;8130556;28;20413;-75
2020/12/31 02:35:51;;;;;;;304.33;49.25;;;;;;;;;;8130749;28;20043;-75
2020/12/31 02:39:54;;;;;;;353.13;55.25;;;;;;;;;;8130275;28;20462;-75
2020/12/31 02:43:57;;;;;;;271.85;45.05;;;;;;;;;;8130686;28;20477;-75
2020/12/31 02:48:00;;;;;;;256.05;43.80;;;;;;;;;;8130431;28;20382;-75
2020/12/31 02:52:03;;;;;;;264.77;47.17;;;;;;;;;;8129282;28;20055;-75
2020/12/31 02:56:18;;;;;;;298.33;40.75;;;;;;;;;;8129365;28;20058;-75
2020/12/31 03:00:21;;;;;;;281.92;45.10;;;;;;;;;;8129440;28;20411;-75
2020/12/31 03:04:24;;;;;;;259.33;39.83;;;;;;;;;;8127646;28;20366;-75
2020/12/31 03:08:28;;;;;;;262.00;36.88;;;;;;;;;;8129675;28;20080;-75
2020/12/31 03:12:31;;;;;;;222.25;33.50;;;;;;;;;;8111754;28;20370;-75
2020/12/31 03:16:34;;;;;;;212.52;37.10;;;;;;;;;;8143173;28;20484;-74
2020/12/31 03:20:43;;;;;;;208.70;36.70;;;;;;;;;;8128715;28;20436;-75
2020/12/31 03:24:46;;;;;;;204.35;33.15;;;;;;;;;;8129825;28;20382;-75
2020/12/31 03:28:49;;;;;;;150.27;27.50;;;;;;;;;;8128708;28;20486;-75
2020/12/31 03:32:52;;;;;;;148.07;28.25;;;;;;;;;;8128228;28;20051;-75
2020/12/31 03:36:56;;;;;;;208.07;28.67;;;;;;;;;;8128690;28;20405;-75
2020/12/31 03:40:59;;;;;;;204.05;28.23;;;;;;;;;;8129003;28;20474;-75
2020/12/31 03:45:03;;;;;;;186.02;26.77;;;;;;;;;;8126562;28;20371;-75
2020/12/31 03:49:06;;;;;;;133.57;23.38;;;;;;;;;;8128922;28;20478;-75
2020/12/31 03:53:09;;;;;;;131.20;25.13;;;;;;;;;;8126619;28;20046;-75
2020/12/31 03:57:13;;;;;;;125.57;24.65;;;;;;;;;;8126622;28;20043;-76
2020/12/31 04:01:16;;;;;;;101.22;23.85;;;;;;;;;;8126865;28;20374;-75
2020/12/31 04:05:19;;;;;;;138.02;24.27;;;;;;;;;;8127160;28;20055;-75
2020/12/31 04:09:22;;;;;;;106.28;23.65;;;;;;;;;;8127593;28;20411;-75
2020/12/31 04:13:26;;;;;;;137.63;22.60;;;;;;;;;;8127032;28;20388;-75
2020/12/31 04:17:29;;;;;;;140.38;24.45;;;;;;;;;;8127827;28;20480;-75
2020/12/31 04:21:32;;;;;;;109.88;22.35;;;;;;;;;;8126917;28;20374;-75
2020/12/31 04:25:35;;;;;;;140.50;22.50;;;;;;;;;;8126209;28;20367;-75
2020/12/31 04:29:39;;;;;;;145.80;22.40;;;;;;;;;;8126699;28;20641;-75
2020/12/31 04:33:42;;;;;;;96.90;21.70;;;;;;;;;;8127679;28;20393;-75
2020/12/31 04:37:45;;;;;;;157.68;26.98;;;;;;;;;;8128049;28;20492;-75
2020/12/31 04:41:48;;;;;;;157.13;22.92;;;;;;;;;;8127894;28;20474;-75
2020/12/31 04:45:53;;;;;;;127.15;22.80;;;;;;;;;;8129520;28;20076;-75
2020/12/31 04:49:56;;;;;;;134.25;21.60;;;;;;;;;;8088714;28;20479;-75
2020/12/31 04:54:00;;;;;;;130.52;22.50;;;;;;;;;;8042977;28;20457;-74
2020/12/31 04:58:03;;;;;;;112.95;20.58;;;;;;;;;;8080976;28;20351;-75
2020/12/31 05:02:07;;;;;;;131.65;21.25;;;;;;;;;;8132863;28;20406;-75
2020/12/31 05:06:16;;;;;;;104.75;18.73;;;;;;;;;;8133152;28;20482;-74
2020/12/31 05:10:19;;;;;;;;;;;;;;;;;;8132435;28;20489;-74
2020/12/31 05:14:33;;;;;;;132.98;18.60;;;;;;;;;;7939968;28;20344;-74
2020/12/31 05:18:37;;;;;;;126.70;19.88;;;;;;;;;;8144792;28;20051;-74
2020/12/31 05:22:40;;;;;;;80.00;17.83;;;;;;;;;;8132595;28;20377;-74
2020/12/31 05:26:44;;;;;;;159.23;20.23;;;;;;;;;;8132435;28;20485;-74
2020/12/31 05:30:51;;;;;;;125.75;18.58;;;;;;;;;;8131193;28;20504;-74
2020/12/31 05:34:55;;;;;;;178.13;21.67;;;;;;;;;;8115760;28;20469;-74
2020/12/31 05:38:57;;;;;;;101.65;19.30;;;;;;;;;;8131696;28;20528;-75
2020/12/31 05:43:00;;;;;;;138.00;19.48;;;;;;;;;;8132618;28;20558;-74
2020/12/31 05:47:04;;;;;;;109.10;18.55;;;;;;;;;;8130126;28;20094;-74
2020/12/31 05:51:41;;;;;;;78.78;19.63;;;;;;;;;;8145662;28;20489;-73
2020/12/31 05:55:47;;;;;;;84.95;19.33;;;;;;;;;;8145760;28;20478;-74
2020/12/31 05:59:55;;;;;;;55.90;17.63;;;;;;;;;;8130302;28;20082;-73
2020/12/31 06:04:19;;;;;;;85.13;17.95;;;;;;;;;;8129810;28;20504;-73
2020/12/31 06:08:30;;;;;;;74.50;18.83;;;;;;;;;;8130562;28;20466;-73
2020/12/31 06:13:04;;;;;;;74.15;18.50;;;;;;;;;;8129404;28;20393;-73
2020/12/31 06:17:08;;;;;;;66.53;18.00;;;;;;;;;;8131541;28;20474;-72
2020/12/31 06:21:14;;;;;;;71.63;17.10;;;;;;;;;;8131408;28;20359;-72
2020/12/31 06:25:34;;;;;;;80.82;18.77;;;;;;;;;;8145392;28;20082;-72
2020/12/31 06:29:43;;;;;;;73.25;17.00;;;;;;;;;;8128897;28;20381;-73
2020/12/31 06:33:49;;;;;;;92.72;17.00;;;;;;;;;;8130690;28;20466;-73
2020/12/31 06:37:59;;;;;;;146.82;28.73;;;;;;;;;;8132500;28;20487;-72
2020/12/31 06:42:02;;;;;;;102.85;25.98;;;;;;;;;;8130538;28;20050;-72
2020/12/31 06:46:20;;;;;;;89.65;20.30;;;;;;;;;;8128472;28;20528;-72
2020/12/31 06:50:53;;;;;;;110.47;22.20;;;;;;;;;;8128610;28;20458;-73
2020/12/31 06:54:56;;;;;;;96.85;19.80;;;;;;;;;;8143767;28;20497;-72
2020/12/31 06:58:59;;;;;;;123.22;22.20;;;;;;;;;;8129425;28;20043;-72
2020/12/31 07:03:02;;;;;;;85.20;20.77;;;;;;;;;;8129816;28;20505;-72
2020/12/31 07:07:20;;;;;;;108.82;22.30;;;;;;;;;;8127727;28;20039;-72
2020/12/31 07:11:36;;;;;;;101.72;21.92;;;;;;;;;;8127464;28;20042;-72
2020/12/31 07:15:39;;;;;;;176.07;41.45;;;;;;;;;;8129588;28;20489;-72
2020/12/31 07:19:45;;;;;;;141.00;28.45;;;;;;;;;;8129260;28;20503;-72
2020/12/31 07:23:48;;;;;;;175.00;19.17;;;;;;;;;;8128787;28;20054;-72
2020/12/31 07:27:53;;;;;;;159.88;19.73;;;;;;;;;;8128850;28;20380;-72
2020/12/31 07:31:56;;;;;;;167.98;18.80;;;;;;;;;;8127037;28;20417;-71
2020/12/31 07:35:59;;;;;;;200.13;19.92;;;;;;;;;;8129141;28;20382;-72
2020/12/31 07:40:03;;;;;;;141.95;18.42;;;;;;;;;;8127279;28;20485;-72
2020/12/31 07:44:07;;;;;;;211.90;21.05;;;;;;;;;;8128908;28;20043;-72
2020/12/31 07:48:10;;;;;;;205.90;21.27;;;;;;;;;;8128659;28;20481;-72
2020/12/31 07:52:14;;;;;;;172.48;22.30;;;;;;;;;;8128099;28;20479;-73
2020/12/31 07:56:18;;;;;;;138.68;20.48;;;;;;;;;;8127306;28;20055;-72
2020/12/31 08:00:22;;;;;;;191.05;32.72;;;;;;;;;;8126513;28;20410;-73
2020/12/31 08:04:28;;;;;;;253.35;26.23;;;;;;;;;;8142721;28;20414;-73
2020/12/31 08:08:32;;;;;;;155.38;23.75;;;;;;;;;;8127855;28;20389;-72
2020/12/31 08:12:38;;;;;;;174.60;20.85;;;;;;;;;;8128246;28;20458;-72
2020/12/31 08:16:42;;;;;;;150.38;17.92;;;;;;;;;;8110696;28;20377;-73
2020/12/31 08:20:47;;;;;;;209.32;24.35;;;;;;;;;;8130045;28;20047;-72
2020/12/31 08:25:09;;;;;;;204.15;18.55;;;;;;;;;;8132792;28;20488;-73
2020/12/31 08:29:14;;;;;;;165.98;21.80;;;;;;;;;;8132307;28;20489;-73
2020/12/31 08:33:26;;;;;;;147.82;19.83;;;;;;;;;;8147994;28;20108;-73
2020/12/31 08:37:32;;;;;;;92.07;19.90;;;;;;;;;;8133573;28;20396;-73
2020/12/31 08:41:35;;;;;;;185.45;21.48;;;;;;;;;;8133749;28;20477;-73
2020/12/31 08:45:40;;;;;;;130.15;22.08;;;;;;;;;;8134079;28;20474;-73
2020/12/31 08:49:55;;;;;;;186.35;19.88;;;;;;;;;;8133359;28;20109;-73
2020/12/31 08:54:00;;;;;;;242.80;20.90;;;;;;;;;;8130752;28;20447;-73
2020/12/31 08:58:14;;;;;;;222.18;28.17;;;;;;;;;;8130839;28;20385;-73
2020/12/31 09:02:18;;;;;;;166.50;23.50;;;;;;;;;;8130734;28;20080;-73
2020/12/31 09:06:24;;;;;;;156.77;20.02;;;;;;;;;;8133072;28;20050;-73
2020/12/31 09:10:32;;;;;;;157.35;19.70;;;;;;;;;;8129034;28;20169;-73
2020/12/31 09:14:38;;;;;;;179.52;20.35;;;;;;;;;;8128916;28;20397;-74
2020/12/31 09:18:45;;;;;;;242.80;25.75;;;;;;;;;;8123960;28;20382;-74
2020/12/31 09:22:49;;;;;;;195.25;23.15;;;;;;;;;;8140689;28;20474;-73
2020/12/31 09:26:56;;;;;;;230.32;24.73;;;;;;;;;;8127958;28;20362;-74
2020/12/31 09:31:21;;;;;;;184.27;21.58;;;;;;;;;;8078857;28;20533;-74
2020/12/31 09:35:24;;;;;;;193.20;19.52;;;;;;;;;;8030498;28;20050;-74
2020/12/31 09:39:28;;;;;;;172.60;18.70;;;;;;;;;;8129212;28;20367;-74
2020/12/31 09:43:32;;;;;;;214.80;19.05;;;;;;;;;;8130998;28;20073;-74
2020/12/31 09:47:35;;;;;;;145.20;18.02;;;;;;;;;;8085847;28;20073;-74
2020/12/31 09:51:38;;;;;;;102.53;18.50;;;;;;;;;;8114335;28;20069;-74
2020/12/31 09:55:41;;;;;;;90.07;18.33;;;;;;;;;;8146243;28;20462;-74
2020/12/31 09:59:45;;;;;;;103.50;17.48;;;;;;;;;;8131220;28;20461;-74
2020/12/31 10:03:49;;;;;;;84.82;19.90;;;;;;;;;;8129891;28;20450;-74
2020/12/31 10:07:53;;;;;;;136.10;26.65;;;;;;;;;;8163327;28;20481;-74
2020/12/31 10:11:56;;;;;;;95.57;22.17;;;;;;;;;;8137599;28;20371;-74
2020/12/31 10:16:05;;;;;;;90.57;23.08;;;;;;;;;;8159139;28;20391;-75
2020/12/31 10:20:08;;;;;;;96.15;22.27;;;;;;;;;;8116636;28;20054;-74
2020/12/31 10:24:11;;;;;;;78.55;20.75;;;;;;;;;;8161261;28;20358;-74
2020/12/31 10:28:15;;;;;;;56.08;22.00;;;;;;;;;;8161000;28;20042;-74
2020/12/31 10:32:18;;;;;;;78.93;22.63;;;;;;;;;;8162239;28;20381;-73
2020/12/31 10:36:21;;;;;;;66.35;22.83;;;;;;;;;;8160633;28;20064;-74
2020/12/31 10:40:25;;;;;;;69.47;23.45;;;;;;;;;;8162205;28;20359;-74
2020/12/31 10:44:27;;;;;;;96.57;23.90;;;;;;;;;;8161615;28;20385;-74
2020/12/31 10:48:31;;;;;;;72.53;23.05;;;;;;;;;;8161925;28;20484;-74
2020/12/31 10:52:34;;;;;;;72.07;21.73;;;;;;;;;;8133389;28;20454;-75
2020/12/31 10:56:39;;;;;;;69.90;23.15;;;;;;;;;;8130059;28;20500;-74
2020/12/31 11:00:42;;;;;;;71.05;22.10;;;;;;;;;;8129842;28;20047;-74
2020/12/31 11:04:45;;;;;;;62.78;21.63;;;;;;;;;;8127714;28;20381;-74
2020/12/31 11:08:48;;;;;;;50.20;18.02;;;;;;;;;;8112660;28;20385;-73
2020/12/31 11:12:52;;;;;;;49.25;19.23;;;;;;;;;;8129397;28;20389;-73
2020/12/31 11:16:56;;;;;;;91.22;19.90;;;;;;;;;;8129631;28;20477;-73
2020/12/31 11:20:59;;;;;;;76.10;19.92;;;;;;;;;;8129617;28;20374;-73
2020/12/31 11:25:02;;;;;;;52.70;20.30;;;;;;;;;;8129203;28;20050;-73
2020/12/31 11:29:06;;;;;;;56.42;21.48;;;;;;;;;;8128980;28;20488;-73
2020/12/31 11:33:10;;;;;;;62.13;21.02;;;;;;;;;;8127345;28;20072;-73
2020/12/31 11:37:14;;;;;;;65.57;19.08;;;;;;;;;;8128377;28;20466;-73
2020/12/31 11:41:18;;;;;;;75.65;23.95;;;;;;;;;;8128839;28;20073;-73
2020/12/31 11:45:21;;;;;;;70.85;30.13;;;;;;;;;;8126623;28;20416;-74
2020/12/31 11:49:24;;;;;;;76.00;27.38;;;;;;;;;;8128280;28;20413;-74
2020/12/31 11:53:28;;;;;;;61.42;24.83;;;;;;;;;;8126667;28;20474;-73
2020/12/31 11:57:32;;;;;;;74.75;29.10;;;;;;;;;;8128641;28;20485;-74
2020/12/31 12:01:35;;;;;;;135.00;50.75;;;;;;;;;;8126484;28;20081;-73
2020/12/31 12:05:38;;;;;;;97.07;31.27;;;;;;;;;;8128386;28;20373;-74
2020/12/31 12:09:42;;;;;;;99.88;28.00;;;;;;;;;;8127797;28;20105;-74
2020/12/31 12:13:45;;;;;;;54.22;20.40;;;;;;;;;;8126167;28;20397;-73
2020/12/31 12:17:49;;;;;;;47.33;18.95;;;;;;;;;;8126641;28;20381;-74
2020/12/31 12:21:58;;;;;;;60.92;24.42;;;;;;;;;;8128195;28;20485;-74
2020/12/31 12:26:02;;;;;;;77.70;24.45;;;;;;;;;;8127572;28;20409;-74
2020/12/31 12:30:09;;;;;;;206.15;23.25;;;;;;;;;;8127478;28;20496;-73
2020/12/31 12:34:12;;;;;;;122.38;22.67;;;;;;;;;;8131281;28;20046;-73
2020/12/31 12:38:17;;;;;;;106.80;23.88;;;;;;;;;;8136779;28;20046;-73
2020/12/31 12:42:21;;;;;;;76.13;23.13;;;;;;;;;;8157956;28;20461;-74
2020/12/31 12:46:24;;;;;;;86.53;29.92;;;;;;;;;;8157666;28;20476;-73
2020/12/31 12:50:27;;;;;;;91.07;27.67;;;;;;;;;;8157534;28;20047;-73
2020/12/31 12:54:30;;;;;;;110.80;27.40;;;;;;;;;;8159036;28;20072;-73
2020/12/31 12:58:34;;;;;;;99.07;24.67;;;;;;;;;;8157665;28;20378;-73
2020/12/31 13:02:38;;;;;;;128.63;26.23;;;;;;;;;;8159771;28;20076;-72
2020/12/31 13:06:48;;;;;;;112.97;23.15;;;;;;;;;;8141437;28;20489;-72
2020/12/31 13:10:54;;;;;;;87.90;28.20;;;;;;;;;;8163707;28;20080;-71
2020/12/31 13:14:57;;;;;;;89.65;29.92;;;;;;;;;;7964107;28;5000883;-73
2020/12/31 13:19:01;;;;;;;98.30;28.10;;;;;;;;;;8128599;28;20466;-71
2020/12/31 13:23:04;;;;;;;123.25;20.95;;;;;;;;;;8111040;28;20572;-71
2020/12/31 13:27:07;;;;;;;54.55;19.20;;;;;;;;;;8126647;28;20051;-71
2020/12/31 13:31:12;;;;;;;85.75;25.48;;;;;;;;;;8120047;28;20509;-72
2020/12/31 13:35:16;;;;;;;69.18;22.38;;;;;;;;;;8121045;28;20541;-71
2020/12/31 13:39:20;;;;;;;93.70;23.00;;;;;;;;;;8127664;28;20394;-73
2020/12/31 13:43:24;;;;;;;101.13;21.05;;;;;;;;;;8127771;28;20401;-73
2020/12/31 13:47:27;;;;;;;82.35;25.65;;;;;;;;;;8129980;28;20073;-73
2020/12/31 13:51:30;;;;;;;89.70;31.98;;;;;;;;;;8131107;28;20386;-72
2020/12/31 13:55:34;;;;;;;100.47;38.95;;;;;;;;;;8128531;28;20377;-72
2020/12/31 13:59:37;;;;;;;144.85;32.60;;;;;;;;;;8131617;28;20068;-73
2020/12/31 14:03:41;;;;;;;143.75;45.00;;;;;;;;;;8130969;28;20054;-73
2020/12/31 14:07:44;;;;;;;216.35;36.63;;;;;;;;;;8128105;28;20501;-74
2020/12/31 14:11:56;;;;;;;116.47;37.10;;;;;;;;;;8131024;28;20047;-72
2020/12/31 14:16:00;;;;;;;276.17;46.83;;;;;;;;;;8129745;28;20516;-73
2020/12/31 14:20:05;;;;;;;105.00;31.30;;;;;;;;;;8130308;28;20500;-72
2020/12/31 14:24:11;;;;;;;221.88;35.30;;;;;;;;;;8130047;28;20490;-75
2020/12/31 14:28:17;;;;;;;358.38;86.47;;;;;;;;;;8123233;28;20486;-74
2020/12/31 14:32:22;;;;;;;335.77;45.35;;;;;;;;;;8128266;28;20065;-73
2020/12/31 14:36:27;;;;;;;263.80;39.05;;;;;;;;;;8127109;28;20043;-72
2020/12/31 14:40:30;;;;;;;281.42;35.35;;;;;;;;;;8130285;28;20074;-74
2020/12/31 14:44:34;;;;;;;254.93;40.88;;;;;;;;;;8126872;28;20740;-73
2020/12/31 14:48:37;;;;;;;236.32;34.15;;;;;;;;;;8127299;28;20462;-73
2020/12/31 14:52:41;;;;;;;215.85;33.42;;;;;;;;;;8112468;28;20504;-74
2020/12/31 14:56:46;;;;;;;280.63;50.00;;;;;;;;;;8124055;28;20378;-72
2020/12/31 15:00:52;;;;;;;215.57;44.75;;;;;;;;;;8110267;28;20478;-71
2020/12/31 15:04:55;;;;;;;331.05;49.08;;;;;;;;;;8126045;28;20081;-72
2020/12/31 15:08:58;;;;;;;247.45;34.22;;;;;;;;;;8127836;28;20466;-73
2020/12/31 15:13:01;;;;;;;245.43;30.00;;;;;;;;;;8124703;28;20381;-72
2020/12/31 15:17:06;;;;;;;216.10;31.52;;;;;;;;;;8126049;28;20051;-73
2020/12/31 15:21:13;;;;;;;234.77;26.92;;;;;;;;;;8127854;28;20077;-72
2020/12/31 15:25:17;;;;;;;244.15;21.83;;;;;;;;;;8123422;28;20422;-72
2020/12/31 15:29:21;;;;;;;290.50;20.27;;;;;;;;;;8108685;28;20469;-72
2020/12/31 15:33:24;;;;;;;497.55;111.25;;;;;;;;;;8125256;28;20073;-72
2020/12/31 15:37:29;;;;;;;400.98;69.05;;;;;;;;;;8091742;28;20476;-70
2020/12/31 15:41:36;;;;;;;286.27;33.38;;;;;;;;;;8125165;28;20496;-72
2020/12/31 15:45:40;;;;;;;306.08;28.92;;;;;;;;;;8121563;28;20381;-72
2020/12/31 15:49:43;;;;;;;251.10;25.88;;;;;;;;;;8125978;28;20478;-71
2020/12/31 15:53:46;;;;;;;241.85;26.17;;;;;;;;;;8124246;28;20386;-71
2020/12/31 15:57:50;;;;;;;299.30;25.20;;;;;;;;;;8124299;28;20047;-71
2020/12/31 16:01:53;;;;;;;255.90;28.52;;;;;;;;;;8126200;28;20413;-72
2020/12/31 16:05:56;;;;;;;303.05;31.13;;;;;;;;;;8124753;28;20402;-71
2020/12/31 16:10:02;;;;;;;252.13;50.70;;;;;;;;;;8123440;28;20516;-72
2020/12/31 16:14:06;;;;;;;326.35;61.53;;;;;;;;;;8114382;28;20383;-72
2020/12/31 16:18:09;;;;;;;694.05;186.50;;;;;;;;;;8133199;28;20462;-72
2020/12/31 16:22:13;;;;;;;852.83;215.30;;;;;;;;;;8152523;28;20484;-73
2020/12/31 16:26:16;;;;;;;1152.10;367.23;;;;;;;;;;8134625;28;20565;-73
2020/12/31 16:30:24;;;;;;;234.15;39.53;;;;;;;;;;8153829;28;20416;-72
2020/12/31 16:34:28;;;;;;;200.98;33.03;;;;;;;;;;8136185;28;20388;-72
2020/12/31 16:38:32;;;;;;;194.60;33.45;;;;;;;;;;8130243;28;20379;-73
2020/12/31 16:42:39;;;;;;;188.07;31.02;;;;;;;;;;8137496;28;20469;-73
2020/12/31 16:46:43;;;;;;;338.95;54.20;;;;;;;;;;8156443;28;20412;-73
2020/12/31 16:50:46;;;;;;;136.15;22.67;;;;;;;;;;8107701;28;20413;-72
2020/12/31 16:54:51;;;;;;;177.45;26.08;;;;;;;;;;8131047;28;20470;-71
2020/12/31 16:58:54;;;;;;;175.95;25.88;;;;;;;;;;8117283;28;20154;-72
2020/12/31 17:02:58;;;;;;;186.20;24.00;;;;;;;;;;8118147;28;20059;-72
2020/12/31 17:07:04;;;;;;;187.52;26.15;;;;;;;;;;8133898;28;20482;-73
2020/12/31 17:11:08;;;;;;;161.60;28.17;;;;;;;;;;8132457;28;20062;-72
2020/12/31 17:15:12;;;;;;;526.78;141.73;;;;;;;;;;8131236;28;20489;-71
2020/12/31 17:19:21;;;;;;;255.43;48.92;;;;;;;;;;8131906;28;20470;-72
2020/12/31 17:23:24;;;;;;;256.17;45.55;;;;;;;;;;8131245;28;20381;-73
2020/12/31 17:27:27;;;;;;;498.70;81.47;;;;;;;;;;8131178;28;20404;-73
2020/12/31 17:31:31;;;;;;;362.85;66.30;;;;;;;;;;8132538;28;20504;-73
2020/12/31 17:35:34;;;;;;;161.13;29.17;;;;;;;;;;8079629;28;20472;-73
2020/12/31 17:39:39;;;;;;;115.07;21.35;;;;;;;;;;8171817;28;20359;-73
2020/12/31 17:44:22;;;;;;;177.32;20.67;;;;;;;;;;8142394;28;20465;-73
2020/12/31 17:49:00;;;;;;;270.75;35.13;;;;;;;;;;8130278;28;20039;-73
2020/12/31 17:53:38;;;;;;;181.65;22.85;;;;;;;;;;8162420;28;20630;-73
2020/12/31 17:57:44;;;;;;;179.70;27.90;;;;;;;;;;8157542;28;20074;-72
2020/12/31 18:01:48;;;;;;;250.68;42.00;;;;;;;;;;8136751;28;20508;-73
2020/12/31 18:05:53;;;;;;;205.93;32.97;;;;;;;;;;8131912;28;20466;-73
2020/12/31 18:09:56;;;;;;;203.20;31.17;;;;;;;;;;8129395;28;20368;-72
2020/12/31 18:13:59;;;;;;;348.38;73.45;;;;;;;;;;8130788;28;20370;-73
2020/12/31 18:18:04;;;;;;;186.25;28.70;;;;;;;;;;8089924;28;20495;-73
2020/12/31 18:22:08;;;;;;;152.95;24.00;;;;;;;;;;8129476;28;20381;-72
2020/12/31 18:26:11;;;;;;;277.58;26.27;;;;;;;;;;8131237;28;20389;-73
2020/12/31 18:30:17;;;;;;;257.02;30.08;;;;;;;;;;8130798;28;20458;-73
2020/12/31 18:34:21;;;;;;;457.33;64.53;;;;;;;;;;8110541;28;20058;-73
2020/12/31 18:38:26;;;;;;;302.30;40.65;;;;;;;;;;8109848;28;20113;-72
2020/12/31 18:42:30;;;;;;;206.13;31.95;;;;;;;;;;8110240;28;20110;-72
2020/12/31 18:46:33;;;;;;;184.82;35.65;;;;;;;;;;8110554;28;20485;-72
2020/12/31 18:50:36;;;;;;;233.90;25.55;;;;;;;;;;8126079;28;20381;-72
2020/12/31 18:54:42;;;;;;;237.02;25.25;;;;;;;;;;8125668;28;20055;-72
2020/12/31 18:58:45;;;;;;;104.15;23.92;;;;;;;;;;8110074;28;20401;-72
2020/12/31 19:02:51;;;;;;;224.40;22.70;;;;;;;;;;8124993;28;20482;-72
2020/12/31 19:06:53;;;;;;;249.70;24.88;;;;;;;;;;8127953;28;20417;-72
2020/12/31 19:10:56;;;;;;;192.82;26.05;;;;;;;;;;8129216;28;20504;-72
2020/12/31 19:15:00;;;;;;;148.00;27.60;;;;;;;;;;8127815;28;20465;-72
2020/12/31 19:19:04;;;;;;;208.00;29.38;;;;;;;;;;8129976;28;20401;-72
2020/12/31 19:23:07;;;;;;;173.27;26.65;;;;;;;;;;8128224;28;20377;-71
2020/12/31 19:27:16;;;;;;;232.55;37.63;;;;;;;;;;8128375;28;20386;-71
2020/12/31 19:31:19;;;;;;;175.57;34.45;;;;;;;;;;8127971;28;20073;-71
2020/12/31 19:35:22;;;;;;;165.40;28.17;;;;;;;;;;8127796;28;20489;-72
2020/12/31 19:39:26;;;;;;;167.25;26.90;;;;;;;;;;8128674;28;20368;-72
2020/12/31 19:43:29;;;;;;;228.13;22.65;;;;;;;;;;8131611;28;20398;-73
2020/12/31 19:47:55;;;;;;;146.02;20.90;;;;;;;;;;8129394;28;20491;-72
2020/12/31 19:51:59;;;;;;;168.55;23.60;;;;;;;;;;8131913;28;20046;-72
2020/12/31 19:56:01;;;;;;;108.15;25.95;;;;;;;;;;8137147;28;20050;-71
2020/12/31 20:00:06;;;;;;;119.53;33.08;;;;;;;;;;8128607;28;20046;-72
2020/12/31 20:04:10;;;;;;;125.40;32.85;;;;;;;;;;8126670;28;20363;-72
2020/12/31 20:08:14;;;;;;;200.00;36.60;;;;;;;;;;8126124;28;20482;-72
2020/12/31 20:12:17;;;;;;;182.70;30.52;;;;;;;;;;8126014;28;20369;-72
2020/12/31 20:16:20;;;;;;;168.15;31.15;;;;;;;;;;8132792;28;20470;-73
2020/12/31 20:20:23;;;;;;;159.23;34.15;;;;;;;;;;8135980;28;20417;-73
2020/12/31 20:24:28;;;;;;;188.45;36.78;;;;;;;;;;8136715;28;20062;-73
2020/12/31 20:28:35;;;;;;;129.80;28.73;;;;;;;;;;8136739;28;20370;-72
2020/12/31 20:32:39;;;;;;;252.98;33.10;;;;;;;;;;8138883;28;20059;-73
2020/12/31 20:36:44;;;;;;;194.60;38.92;;;;;;;;;;8110652;28;20489;-72
2020/12/31 20:40:47;;;;;;;447.25;151.25;;;;;;;;;;8136296;28;20421;-73
2020/12/31 20:44:50;;;;;;;243.43;57.42;;;;;;;;;;8128037;28;20507;-72
2020/12/31 20:48:53;;;;;;;164.52;34.10;;;;;;;;;;8136244;28;20381;-73
2020/12/31 20:52:56;;;;;;;237.05;36.00;;;;;;;;;;8136835;28;20362;-73
2020/12/31 20:57:01;;;;;;;206.40;29.35;;;;;;;;;;8141586;28;20388;-73
2020/12/31 21:01:11;;;;;;;179.82;31.52;;;;;;;;;;8137650;28;20478;-71
2020/12/31 21:05:16;;;;;;;120.10;26.50;;;;;;;;;;8130316;28;20384;-73
2020/12/31 21:09:20;;;;;;;203.25;30.90;;;;;;;;;;8168091;28;20362;-73
2020/12/31 21:13:23;;;;;;;212.70;32.25;;;;;;;;;;8169769;28;20042;-73
2020/12/31 21:17:28;;;;;;;148.13;26.98;;;;;;;;;;8169754;28;20480;-73
2020/12/31 21:21:36;;;;;;;187.88;30.13;;;;;;;;;;8169389;28;20077;-73
2020/12/31 21:25:40;;;;;;;147.95;32.78;;;;;;;;;;8169581;28;20050;-73
2020/12/31 21:29:44;;;;;;;151.43;27.95;;;;;;;;;;8163907;28;20504;-73
2020/12/31 21:33:47;;;;;;;209.10;31.25;;;;;;;;;;8162989;28;20116;-73
2020/12/31 21:37:52;;;;;;;153.00;29.63;;;;;;;;;;8162282;28;20081;-73
2020/12/31 21:41:55;;;;;;;125.05;28.25;;;;;;;;;;8164238;28;20503;-73
2020/12/31 21:45:58;;;;;;;264.42;36.45;;;;;;;;;;8162628;28;20660;-73
2020/12/31 21:50:03;;;;;;;164.63;29.65;;;;;;;;;;8164201;28;20054;-73
2020/12/31 21:54:07;;;;;;;131.02;30.33;;;;;;;;;;8163232;28;20051;-71
2020/12/31 21:58:10;;;;;;;213.20;29.83;;;;;;;;;;8162295;28;20425;-73
2020/12/31 22:02:15;;;;;;;237.07;28.63;;;;;;;;;;8161959;28;20465;-73
2020/12/31 22:06:18;;;;;;;188.32;29.13;;;;;;;;;;8163085;28;20473;-73
2020/12/31 22:10:21;;;;;;;190.65;27.83;;;;;;;;;;8191100;28;20472;-72
2020/12/31 22:14:26;;;;;;;155.82;30.90;;;;;;;;;;8191396;28;20380;-72
2020/12/31 22:18:30;;;;;;;219.02;28.88;;;;;;;;;;8174808;28;20388;-72
2020/12/31 22:22:34;;;;;;;172.02;33.83;;;;;;;;;;8191020;28;20692;-71
2020/12/31 22:26:39;;;;;;;163.63;28.00;;;;;;;;;;8190798;28;20616;-72
2020/12/31 22:30:43;;;;;;;181.93;26.85;;;;;;;;;;8174144;28;20362;-73
2020/12/31 22:34:46;;;;;;;162.43;27.15;;;;;;;;;;8190237;28;20527;-74
2020/12/31 22:38:50;;;;;;;165.70;28.60;;;;;;;;;;8155841;28;20076;-72
2020/12/31 22:42:53;;;;;;;505.23;74.97;;;;;;;;;;8160992;28;20143;-73
2020/12/31 22:47:00;;;;;;;331.33;47.40;;;;;;;;;;8176157;28;20377;-73
2020/12/31 22:51:07;;;;;;;159.18;31.55;;;;;;;;;;8160133;28;20381;-73
2020/12/31 22:55:10;;;;;;;181.98;31.33;;;;;;;;;;8161764;28;20347;-73
2020/12/31 22:59:14;;;;;;;659.10;125.70;;;;;;;;;;8161970;28;20381;-73
2020/12/31 23:03:17;;;;;;;250.73;48.63;;;;;;;;;;8159122;28;20491;-73
2020/12/31 23:07:22;;;;;;;237.38;88.18;;;;;;;;;;8160829;28;20369;-73
2020/12/31 23:11:28;;;;;;;380.83;154.65;;;;;;;;;;8161382;28;20359;-73
2020/12/31 23:15:31;;;;;;;128.80;37.88;;;;;;;;;;8160043;28;20046;-73
2020/12/31 23:19:35;;;;;;;134.10;33.47;;;;;;;;;;8160579;28;20473;-73
2020/12/31 23:23:38;;;;;;;215.13;26.90;;;;;;;;;;8159025;28;20050;-73
2020/12/31 23:27:47;;;;;;;230.90;29.25;;;;;;;;;;8161139;28;20183;-73